Terminal Aerodrome Forecast
Issued by NWS

Home | Current Version | Previous Version | Graphics & Text | Print | Product List | Glossary On
Versions: 1 2 3 4 5 6 7 8 9 10 11 12 13 14 15 16 17 18 19 20
448
FTUS43 KBIS 260528
TAFDIK
TAF
KDIK 260528Z 2606/2706 21005KT P6SM SCT080
     FM261600 21012KT P6SM SCT060 BKN080
     FM262300 18012KT P6SM SCT050 BKN070
     FM270300 18007KT P6SM BKN200=

USA.gov is the U.S. government's official web portal to all federal, state and local government web resources and services.